createdAt,value
2023-05-09T00:00:49.083Z,0.00
2023-05-09T00:01:48.885Z,0.00
2023-05-09T00:02:48.816Z,0.00
2023-05-09T00:03:48.950Z,0.00
2023-05-09T00:04:48.900Z,0.00
2023-05-09T00:05:48.782Z,0.00
2023-05-09T00:06:48.769Z,0.00
2023-05-09T00:07:48.739Z,0.00
2023-05-09T00:08:48.735Z,0.00
2023-05-09T00:09:48.752Z,0.00
2023-05-09T00:10:48.768Z,0.00
2023-05-09T00:11:48.714Z,0.00
2023-05-09T00:12:48.689Z,0.00
2023-05-09T00:13:48.695Z,0.00
2023-05-09T00:14:48.675Z,0.00
2023-05-09T00:15:48.683Z,0.00
2023-05-09T00:16:48.701Z,0.00
2023-05-09T00:17:48.668Z,0.00
2023-05-09T00:18:48.662Z,0.00
2023-05-09T00:19:48.777Z,0.00
2023-05-09T00:20:48.642Z,0.00
2023-05-09T00:21:48.609Z,0.00
2023-05-09T00:22:48.663Z,0.00
2023-05-09T00:23:48.571Z,0.00
2023-05-09T00:24:49.196Z,0.00
2023-05-09T00:25:48.605Z,0.00
2023-05-09T00:26:48.608Z,0.00
2023-05-09T00:27:48.541Z,0.00
2023-05-09T00:28:48.520Z,0.00
2023-05-09T00:29:48.533Z,0.00
2023-05-09T00:30:48.556Z,0.00
2023-05-09T00:31:48.657Z,0.00
2023-05-09T00:32:48.563Z,0.00
2023-05-09T00:33:48.536Z,0.00
2023-05-09T00:34:48.477Z,0.00
2023-05-09T00:35:48.564Z,0.00
2023-05-09T00:36:48.459Z,0.00
2023-05-09T00:37:48.498Z,0.00
2023-05-09T00:38:48.603Z,0.00
2023-05-09T00:39:48.428Z,0.00
2023-05-09T00:40:48.423Z,0.00
2023-05-09T00:41:48.407Z,0.00
2023-05-09T00:42:48.438Z,0.00
2023-05-09T00:43:48.413Z,0.00
2023-05-09T00:44:48.376Z,0.00
2023-05-09T00:45:48.409Z,0.00
2023-05-09T00:46:48.331Z,0.00
2023-05-09T00:47:48.366Z,0.00
2023-05-09T00:48:49.288Z,0.00
2023-05-09T00:49:48.320Z,0.00
2023-05-09T00:50:48.364Z,0.00
2023-05-09T00:51:48.391Z,0.00
2023-05-09T00:52:48.315Z,0.00
2023-05-09T00:53:48.288Z,0.00
2023-05-09T00:54:48.292Z,0.00
2023-05-09T00:55:48.273Z,0.00
2023-05-09T00:56:48.264Z,0.00
2023-05-09T00:57:48.334Z,0.00
2023-05-09T00:58:48.248Z,0.00
2023-05-09T00:59:48.207Z,0.00
2023-05-09T01:00:48.256Z,0.00
2023-05-09T01:01:48.270Z,0.00
2023-05-09T01:02:48.269Z,0.00
2023-05-09T01:03:48.301Z,0.00
2023-05-09T01:04:48.213Z,0.00
2023-05-09T01:05:48.195Z,0.00
2023-05-09T01:06:48.794Z,0.00
2023-05-09T01:07:48.324Z,0.00
2023-05-09T01:08:48.195Z,0.00
2023-05-09T01:09:48.137Z,0.00
2023-05-09T01:10:48.219Z,0.00
2023-05-09T01:11:48.112Z,0.00
2023-05-09T01:12:48.130Z,0.00
2023-05-09T01:13:48.088Z,0.00
2023-05-09T01:14:48.063Z,0.00
2023-05-09T01:15:48.102Z,0.00
2023-05-09T01:16:48.646Z,0.00
2023-05-09T01:17:48.136Z,0.00
2023-05-09T01:18:48.067Z,0.00
2023-05-09T01:19:48.055Z,0.00
2023-05-09T01:20:48.021Z,0.00
2023-05-09T01:21:47.983Z,0.00
2023-05-09T01:22:48.047Z,0.00
2023-05-09T01:24:20.456Z,0.00
2023-05-09T01:24:48.058Z,0.00
2023-05-09T01:25:48.077Z,0.00
2023-05-09T01:26:48.007Z,0.00
2023-05-09T01:27:48.003Z,0.00
2023-05-09T01:28:47.970Z,0.00
2023-05-09T01:29:47.922Z,0.00
2023-05-09T01:30:47.979Z,0.00
2023-05-09T01:31:47.955Z,0.00
2023-05-09T01:32:47.958Z,0.00
2023-05-09T01:33:47.923Z,0.00
2023-05-09T01:34:47.940Z,0.00
2023-05-09T01:35:47.902Z,0.00
2023-05-09T01:36:47.890Z,0.00
2023-05-09T01:37:47.858Z,0.00
2023-05-09T01:38:47.925Z,0.00
2023-05-09T01:39:47.919Z,0.00
2023-05-09T01:40:47.885Z,0.00
2023-05-09T01:41:47.833Z,0.00
2023-05-09T01:42:47.818Z,0.00
2023-05-09T01:43:47.826Z,0.00
2023-05-09T01:44:47.820Z,0.00
2023-05-09T01:45:47.801Z,0.00
2023-05-09T01:46:47.795Z,0.00
2023-05-09T01:47:47.865Z,0.00
2023-05-09T01:48:47.778Z,0.00
2023-05-09T01:49:47.785Z,0.00
2023-05-09T01:50:47.702Z,0.00
2023-05-09T01:51:47.762Z,0.00
2023-05-09T01:52:47.736Z,0.00
2023-05-09T01:53:47.710Z,0.00
2023-05-09T01:54:47.735Z,0.00
2023-05-09T01:55:47.866Z,0.00
2023-05-09T01:56:48.338Z,0.00
2023-05-09T01:57:47.681Z,0.00
2023-05-09T01:58:47.661Z,0.00
2023-05-09T01:59:48.655Z,0.00
2023-05-09T02:00:47.699Z,0.00
2023-05-09T02:01:47.675Z,0.00
2023-05-09T02:02:47.739Z,0.00
2023-05-09T02:03:47.602Z,0.00
2023-05-09T02:04:47.596Z,0.00
2023-05-09T02:05:47.637Z,0.00
2023-05-09T02:06:47.555Z,0.00
2023-05-09T02:07:47.577Z,0.00
2023-05-09T02:08:48.287Z,0.00
2023-05-09T02:09:47.546Z,0.00
2023-05-09T02:10:47.578Z,0.00
2023-05-09T02:11:47.613Z,0.00
2023-05-09T02:12:47.596Z,0.00
2023-05-09T02:13:47.513Z,0.00
2023-05-09T02:14:47.500Z,0.00
2023-05-09T02:15:47.506Z,0.00
2023-05-09T02:16:47.503Z,0.00
2023-05-09T02:17:47.502Z,0.00
2023-05-09T02:18:47.451Z,0.00
2023-05-09T02:19:47.462Z,0.00
2023-05-09T02:20:47.439Z,0.00
2023-05-09T02:21:47.423Z,0.00
2023-05-09T02:22:47.633Z,0.00
2023-05-09T02:23:47.423Z,0.00
2023-05-09T02:24:47.358Z,0.00
2023-05-09T02:25:47.375Z,0.00
2023-05-09T02:26:47.350Z,0.00
2023-05-09T02:27:47.439Z,0.00
2023-05-09T02:28:47.334Z,0.00
2023-05-09T02:29:47.346Z,0.00
2023-05-09T02:30:47.332Z,0.00
2023-05-09T02:31:47.379Z,0.00
2023-05-09T02:32:47.389Z,0.00
2023-05-09T02:33:47.302Z,0.00
2023-05-09T02:34:47.310Z,0.00
2023-05-09T02:35:47.241Z,0.00
2023-05-09T02:36:47.310Z,0.00
2023-05-09T02:37:47.257Z,0.00
2023-05-09T02:38:47.248Z,0.00
2023-05-09T02:39:47.289Z,0.00
2023-05-09T02:40:47.193Z,0.00
2023-05-09T02:41:47.213Z,0.00
2023-05-09T02:42:47.226Z,0.00
2023-05-09T02:43:47.256Z,0.00
2023-05-09T02:44:47.147Z,0.00
2023-05-09T02:45:47.245Z,0.00
2023-05-09T02:46:47.211Z,0.00
2023-05-09T02:47:47.235Z,0.00
2023-05-09T02:48:47.181Z,0.00
2023-05-09T02:49:47.113Z,0.00
2023-05-09T02:50:47.094Z,0.00
2023-05-09T02:51:48.224Z,0.00
2023-05-09T02:52:47.206Z,0.00
2023-05-09T02:53:47.065Z,0.00
2023-05-09T02:54:47.063Z,0.00
2023-05-09T02:55:47.034Z,0.00
2023-05-09T02:56:47.083Z,0.00
2023-05-09T02:57:47.083Z,0.00
2023-05-09T02:58:47.057Z,0.00
2023-05-09T02:59:47.102Z,0.00
2023-05-09T03:00:47.028Z,0.00
2023-05-09T03:01:47.039Z,0.00
2023-05-09T03:02:47.077Z,0.00
2023-05-09T03:03:47.147Z,0.00
2023-05-09T03:04:46.997Z,0.00
2023-05-09T03:05:46.991Z,0.00
2023-05-09T03:06:47.060Z,0.00
2023-05-09T03:07:46.949Z,0.00
2023-05-09T03:08:46.942Z,0.00
2023-05-09T03:09:46.939Z,0.00
2023-05-09T03:10:46.883Z,0.00
2023-05-09T03:11:46.889Z,0.00
2023-05-09T03:12:46.904Z,0.00
2023-05-09T03:13:46.855Z,0.00
2023-05-09T03:14:46.906Z,0.00
2023-05-09T03:15:46.970Z,0.00
2023-05-09T03:16:46.838Z,0.00
2023-05-09T03:17:46.867Z,0.00
2023-05-09T03:18:46.827Z,0.00
2023-05-09T03:19:46.784Z,0.00
2023-05-09T03:20:46.756Z,0.00
2023-05-09T03:21:46.760Z,0.00
2023-05-09T03:22:46.761Z,0.00
2023-05-09T03:23:46.765Z,0.00
2023-05-09T03:24:46.754Z,0.00
2023-05-09T03:25:46.715Z,0.00
2023-05-09T03:26:46.706Z,0.00
2023-05-09T03:27:46.692Z,0.00
2023-05-09T03:28:46.691Z,0.00
2023-05-09T03:29:46.750Z,0.00
2023-05-09T03:30:46.677Z,5.62
2023-05-09T03:31:46.810Z,5.62
2023-05-09T03:32:46.708Z,5.62
2023-05-09T03:33:46.662Z,5.62
2023-05-09T03:34:46.622Z,5.62
2023-05-09T03:35:46.652Z,5.62
2023-05-09T03:36:46.654Z,5.62
2023-05-09T03:37:46.669Z,11.25
2023-05-09T03:38:46.584Z,11.25
2023-05-09T03:39:46.573Z,11.25
2023-05-09T03:40:46.583Z,11.25
2023-05-09T03:41:46.556Z,11.25
2023-05-09T03:42:46.563Z,16.88
2023-05-09T03:43:46.526Z,16.88
2023-05-09T03:44:46.549Z,16.88
2023-05-09T03:45:46.535Z,16.88
2023-05-09T03:46:46.525Z,22.50
2023-05-09T03:47:47.346Z,22.50
2023-05-09T03:48:46.483Z,22.50
2023-05-09T03:49:46.492Z,22.50
2023-05-09T03:50:46.470Z,28.12
2023-05-09T03:51:46.486Z,28.12
2023-05-09T03:52:46.446Z,28.12
2023-05-09T03:53:46.423Z,33.75
2023-05-09T03:54:46.415Z,33.75
2023-05-09T03:55:46.406Z,39.38
2023-05-09T03:56:46.398Z,39.38
2023-05-09T03:57:46.427Z,39.38
2023-05-09T03:58:46.457Z,45.00
2023-05-09T03:59:46.361Z,45.00
2023-05-09T04:00:46.366Z,50.62
2023-05-09T04:01:46.375Z,50.62
2023-05-09T04:02:46.435Z,50.62
2023-05-09T04:03:46.497Z,56.25
2023-05-09T04:04:46.329Z,61.88
2023-05-09T04:05:46.302Z,61.88
2023-05-09T04:06:46.274Z,67.50
2023-05-09T04:07:46.291Z,67.50
2023-05-09T04:08:46.341Z,73.12
2023-05-09T04:09:46.238Z,73.12
2023-05-09T04:10:46.253Z,78.75
2023-05-09T04:11:46.254Z,78.75
2023-05-09T04:12:46.278Z,84.38
2023-05-09T04:13:46.220Z,84.38
2023-05-09T04:14:48.721Z,84.38
2023-05-09T04:15:47.217Z,90.00
2023-05-09T04:16:46.202Z,95.62
2023-05-09T04:17:46.196Z,95.62
2023-05-09T04:18:47.157Z,101.25
2023-05-09T04:20:18.987Z,106.88
2023-05-09T04:20:46.249Z,106.88
2023-05-09T04:21:49.634Z,112.50
2023-05-09T04:22:49.505Z,118.12
2023-05-09T04:23:50.648Z,118.12
2023-05-09T04:24:47.229Z,123.75
2023-05-09T04:25:46.141Z,129.38
2023-05-09T04:26:46.113Z,129.38
2023-05-09T04:27:46.088Z,135.00
2023-05-09T04:28:46.056Z,140.62
2023-05-09T04:29:46.086Z,140.62
2023-05-09T04:30:46.070Z,146.25
2023-05-09T04:31:46.338Z,151.88
2023-05-09T04:32:46.184Z,157.50
2023-05-09T04:33:46.012Z,157.50
2023-05-09T04:34:46.013Z,163.12
2023-05-09T04:35:46.191Z,168.75
2023-05-09T04:36:45.982Z,174.38
2023-05-09T04:37:45.985Z,174.38
2023-05-09T04:38:46.004Z,174.38
2023-05-09T04:39:45.949Z,180.00
2023-05-09T04:40:45.970Z,185.62
2023-05-09T04:41:45.948Z,191.25
2023-05-09T04:42:45.907Z,196.88
2023-05-09T04:43:45.948Z,202.50
2023-05-09T04:44:45.915Z,202.50
2023-05-09T04:45:45.912Z,213.75
2023-05-09T04:46:46.132Z,219.38
2023-05-09T04:47:45.924Z,236.25
2023-05-09T04:48:45.855Z,241.88
2023-05-09T04:49:45.881Z,241.88
2023-05-09T04:50:45.843Z,247.50
2023-05-09T04:51:46.023Z,247.50
2023-05-09T04:52:45.829Z,253.12
2023-05-09T04:53:45.801Z,258.75
2023-05-09T04:54:45.929Z,264.38
2023-05-09T04:55:45.855Z,270.00
2023-05-09T04:56:45.869Z,275.62
2023-05-09T04:57:45.840Z,275.62
2023-05-09T04:58:45.800Z,281.25
2023-05-09T04:59:45.778Z,286.88
2023-05-09T05:00:45.805Z,292.50
2023-05-09T05:01:46.164Z,298.12
2023-05-09T05:02:46.039Z,303.75
2023-05-09T05:03:45.953Z,315.00
2023-05-09T05:04:45.878Z,320.62
2023-05-09T05:05:45.847Z,326.25
2023-05-09T05:06:45.904Z,331.88
2023-05-09T05:07:45.836Z,348.75
2023-05-09T05:08:45.793Z,365.62
2023-05-09T05:09:45.854Z,388.12
2023-05-09T05:10:46.299Z,405.00
2023-05-09T05:11:57.977Z,405.00
2023-05-09T05:12:48.136Z,410.62
2023-05-09T05:13:46.648Z,405.00
2023-05-09T05:14:45.836Z,405.00
2023-05-09T05:15:46.266Z,405.00
2023-05-09T05:16:45.940Z,410.62
2023-05-09T05:17:46.574Z,427.50
2023-05-09T05:18:45.819Z,483.75
2023-05-09T05:19:45.730Z,708.75
2023-05-09T05:20:45.997Z,984.38
2023-05-09T05:21:45.836Z,1023.75
2023-05-09T05:22:46.484Z,1018.12
2023-05-09T05:23:45.736Z,1035.00
2023-05-09T05:24:45.567Z,1023.75
2023-05-09T05:25:45.696Z,1085.62
2023-05-09T05:26:45.606Z,1130.62
2023-05-09T05:27:45.839Z,1175.62
2023-05-09T05:28:45.712Z,1164.38
2023-05-09T05:29:46.008Z,1096.88
2023-05-09T05:30:45.687Z,883.12
2023-05-09T05:31:45.834Z,669.38
2023-05-09T05:32:45.768Z,1074.38
2023-05-09T05:33:46.816Z,1096.88
2023-05-09T05:34:47.328Z,1125.00
2023-05-09T05:35:45.894Z,1170.00
2023-05-09T05:36:45.454Z,1164.38
2023-05-09T05:37:47.079Z,1074.38
2023-05-09T05:38:45.938Z,1141.88
2023-05-09T05:39:45.449Z,1170.00
2023-05-09T05:40:45.449Z,1119.38
2023-05-09T05:41:45.820Z,849.38
2023-05-09T05:42:45.694Z,995.62
2023-05-09T05:43:54.227Z,832.50
2023-05-09T05:44:47.225Z,675.00
2023-05-09T05:45:46.071Z,748.12
2023-05-09T05:46:45.407Z,855.00
2023-05-09T05:47:46.886Z,697.50
2023-05-09T05:48:47.600Z,703.12
2023-05-09T05:49:47.366Z,1271.25
2023-05-09T05:50:45.580Z,1288.12
2023-05-09T05:51:46.470Z,1192.50
2023-05-09T05:52:45.895Z,1220.62
2023-05-09T05:53:46.686Z,1231.88
2023-05-09T05:54:45.621Z,894.38
2023-05-09T05:55:45.279Z,815.62
2023-05-09T05:56:47.216Z,1023.75
2023-05-09T05:57:45.793Z,748.12
2023-05-09T05:58:47.143Z,1254.38
2023-05-09T05:59:45.488Z,1220.62
2023-05-09T06:00:45.316Z,1338.75
2023-05-09T06:01:46.384Z,1170.00
2023-05-09T06:02:45.190Z,1423.12
2023-05-09T06:03:45.163Z,1417.50
2023-05-09T06:04:44.986Z,1462.50
2023-05-09T06:05:45.043Z,1479.38
2023-05-09T06:06:45.028Z,1350.00
2023-05-09T06:07:45.055Z,1231.88
2023-05-09T06:08:45.622Z,1181.25
2023-05-09T06:09:44.986Z,1113.75
2023-05-09T06:10:44.980Z,1006.88
2023-05-09T06:11:45.047Z,933.75
2023-05-09T06:12:44.948Z,900.00
2023-05-09T06:13:44.984Z,545.62
2023-05-09T06:14:44.926Z,573.75
2023-05-09T06:15:44.927Z,607.50
2023-05-09T06:16:44.924Z,641.25
2023-05-09T06:17:44.896Z,725.62
2023-05-09T06:18:44.847Z,1383.75
2023-05-09T06:19:44.899Z,776.25
2023-05-09T06:20:44.887Z,725.62
2023-05-09T06:21:44.840Z,658.12
2023-05-09T06:22:44.832Z,635.62
2023-05-09T06:23:57.747Z,613.12
2023-05-09T06:24:46.844Z,585.00
2023-05-09T06:25:44.802Z,601.88
2023-05-09T06:26:44.782Z,810.00
2023-05-09T06:27:44.775Z,1642.50
2023-05-09T06:28:44.797Z,1800.00
2023-05-09T06:29:44.791Z,1361.25
2023-05-09T06:30:44.794Z,1726.88
2023-05-09T06:31:44.784Z,1698.75
2023-05-09T06:32:44.796Z,1771.88
2023-05-09T06:33:44.726Z,1845.00
2023-05-09T06:34:44.710Z,1344.38
2023-05-09T06:35:44.767Z,1822.50
2023-05-09T06:36:44.649Z,1884.38
2023-05-09T06:37:46.456Z,1940.62
2023-05-09T06:38:44.707Z,1749.38
2023-05-09T06:39:44.679Z,1113.75
2023-05-09T06:40:44.638Z,1091.25
2023-05-09T06:41:44.660Z,1248.75
2023-05-09T06:42:44.657Z,1231.88
2023-05-09T06:43:44.747Z,1063.12
2023-05-09T06:44:44.826Z,855.00
2023-05-09T06:45:44.607Z,720.00
2023-05-09T06:46:44.617Z,680.62
2023-05-09T06:47:44.593Z,793.12
2023-05-09T06:48:44.548Z,821.25
2023-05-09T06:49:44.529Z,759.38
2023-05-09T06:50:44.534Z,759.38
2023-05-09T06:51:44.565Z,1091.25
2023-05-09T06:52:45.776Z,945.00
2023-05-09T06:53:45.972Z,1006.88
2023-05-09T06:54:44.536Z,939.38
2023-05-09T06:55:44.873Z,894.38
2023-05-09T06:56:44.597Z,1001.25
2023-05-09T06:57:44.646Z,1485.00
2023-05-09T06:58:44.539Z,1518.75
2023-05-09T06:59:44.515Z,2086.88
2023-05-09T07:00:44.532Z,2165.62
2023-05-09T07:01:44.561Z,2092.50
2023-05-09T07:02:45.521Z,2317.50
2023-05-09T07:03:44.628Z,2368.12
2023-05-09T07:04:44.652Z,2385.00
2023-05-09T07:05:44.974Z,2385.00
2023-05-09T07:06:44.509Z,2446.88
2023-05-09T07:07:44.418Z,2520.00
2023-05-09T07:08:44.568Z,2604.38
2023-05-09T07:09:44.486Z,2480.62
2023-05-09T07:10:44.372Z,2655.00
2023-05-09T07:11:44.523Z,2716.88
2023-05-09T07:12:44.309Z,2784.38
2023-05-09T07:13:44.417Z,2705.62
2023-05-09T07:14:44.651Z,2688.75
2023-05-09T07:16:18.902Z,2767.50
2023-05-09T07:16:44.812Z,2750.62
2023-05-09T07:17:44.557Z,2790.00
2023-05-09T07:18:44.302Z,2823.75
2023-05-09T07:19:44.241Z,2728.12
2023-05-09T07:20:44.432Z,1845.00
2023-05-09T07:21:44.549Z,1485.00
2023-05-09T07:22:44.421Z,1473.75
2023-05-09T07:23:45.339Z,1378.12
2023-05-09T07:24:44.691Z,2593.12
2023-05-09T07:25:44.195Z,1743.75
2023-05-09T07:26:45.025Z,1636.88
2023-05-09T07:27:44.677Z,2756.25
2023-05-09T07:28:44.185Z,2998.12
2023-05-09T07:29:45.196Z,2874.38
2023-05-09T07:30:44.937Z,2345.62
2023-05-09T07:31:44.692Z,2694.38
2023-05-09T07:32:44.172Z,3076.88
2023-05-09T07:33:44.269Z,2896.88
2023-05-09T07:34:44.313Z,2964.38
2023-05-09T07:35:44.362Z,3043.12
2023-05-09T07:36:44.063Z,2469.38
2023-05-09T07:37:44.111Z,3037.50
2023-05-09T07:38:44.334Z,2806.88
2023-05-09T07:39:44.062Z,1805.62
2023-05-09T07:40:44.064Z,2671.88
2023-05-09T07:41:44.269Z,2919.38
2023-05-09T07:42:44.105Z,2868.75
2023-05-09T07:43:44.123Z,2829.38
2023-05-09T07:44:44.637Z,2874.38
2023-05-09T07:45:44.355Z,2851.88
2023-05-09T07:46:44.192Z,2891.25
2023-05-09T07:47:44.551Z,2992.50
2023-05-09T07:48:43.959Z,2660.62
2023-05-09T07:49:43.923Z,2958.75
2023-05-09T07:50:44.330Z,2649.38
2023-05-09T07:51:44.795Z,1918.12
2023-05-09T07:52:44.294Z,2829.38
2023-05-09T07:53:43.901Z,2340.00
2023-05-09T07:54:44.039Z,2677.50
2023-05-09T07:55:44.028Z,2941.88
2023-05-09T07:56:43.858Z,3009.38
2023-05-09T07:57:44.610Z,3054.38
2023-05-09T07:58:43.944Z,2340.00
2023-05-09T07:59:44.024Z,3065.62
2023-05-09T08:00:43.754Z,3043.12
2023-05-09T08:01:44.027Z,3003.75
2023-05-09T08:02:44.273Z,2908.12
2023-05-09T08:03:44.045Z,3262.50
2023-05-09T08:04:44.156Z,2621.25
2023-05-09T08:05:43.828Z,2891.25
2023-05-09T08:06:43.844Z,2328.75
2023-05-09T08:07:43.852Z,3076.88
2023-05-09T08:08:43.865Z,2390.62
2023-05-09T08:10:11.087Z,3150.00
2023-05-09T08:10:43.960Z,3166.88
2023-05-09T08:12:30.988Z,3268.12
2023-05-09T08:12:44.744Z,3240.00
2023-05-09T08:13:43.686Z,3262.50
2023-05-09T08:14:43.926Z,3408.75
2023-05-09T08:15:44.347Z,3408.75
2023-05-09T08:16:43.674Z,3307.50
2023-05-09T08:17:44.851Z,3093.75
2023-05-09T08:18:43.641Z,2430.00
2023-05-09T08:19:44.274Z,3133.12
2023-05-09T08:20:43.611Z,2610.00
2023-05-09T08:21:43.581Z,2666.25
2023-05-09T08:22:43.648Z,2036.25
2023-05-09T08:23:43.657Z,2047.50
2023-05-09T08:24:43.542Z,1248.75
2023-05-09T08:25:43.615Z,1271.25
2023-05-09T08:26:43.516Z,1040.62
2023-05-09T08:27:44.654Z,1006.88
2023-05-09T08:28:43.501Z,1012.50
2023-05-09T08:29:43.728Z,1057.50
2023-05-09T08:30:43.524Z,1029.38
2023-05-09T08:31:43.520Z,1006.88
2023-05-09T08:32:43.550Z,1023.75
2023-05-09T08:33:43.610Z,1051.88
2023-05-09T08:34:43.418Z,1063.12
2023-05-09T08:35:44.513Z,1102.50
2023-05-09T08:36:43.455Z,1350.00
2023-05-09T08:37:43.643Z,1333.12
2023-05-09T08:38:43.499Z,1175.62
2023-05-09T08:39:43.558Z,1113.75
2023-05-09T08:40:43.658Z,1164.38
2023-05-09T08:41:43.374Z,1248.75
2023-05-09T08:42:43.363Z,1344.38
2023-05-09T08:43:43.838Z,1479.38
2023-05-09T08:44:43.795Z,2143.12
2023-05-09T08:45:43.355Z,1951.88
2023-05-09T08:46:43.365Z,1721.25
2023-05-09T08:47:43.329Z,1771.88
2023-05-09T08:48:43.836Z,2075.62
2023-05-09T08:49:43.255Z,3211.88
2023-05-09T08:50:43.308Z,2441.25
2023-05-09T08:51:43.393Z,3307.50
2023-05-09T08:52:43.259Z,2143.12
2023-05-09T08:53:43.928Z,2075.62
2023-05-09T08:54:43.822Z,1698.75
2023-05-09T08:55:44.405Z,1923.75
2023-05-09T08:56:43.490Z,1496.25
2023-05-09T08:57:43.371Z,1417.50
2023-05-09T08:58:43.736Z,1608.75
2023-05-09T08:59:43.483Z,1580.62
2023-05-09T09:00:43.238Z,1783.12
2023-05-09T09:01:43.676Z,2373.75
2023-05-09T09:02:43.373Z,1816.88
2023-05-09T09:03:43.472Z,1597.50
2023-05-09T09:04:43.194Z,1501.88
2023-05-09T09:05:43.173Z,1681.88
2023-05-09T09:06:43.188Z,1681.88
2023-05-09T09:07:43.157Z,1771.88
2023-05-09T09:08:43.197Z,1721.25
2023-05-09T09:09:43.072Z,1704.38
2023-05-09T09:10:43.211Z,2396.25
2023-05-09T09:11:43.259Z,3127.50
2023-05-09T09:12:42.998Z,2711.25
2023-05-09T09:13:43.088Z,2193.75
2023-05-09T09:14:43.031Z,2205.00
2023-05-09T09:15:43.023Z,2576.25
2023-05-09T09:16:43.357Z,2840.62
2023-05-09T09:17:43.190Z,2728.12
2023-05-09T09:18:46.662Z,2913.75
2023-05-09T09:19:43.912Z,2857.50
2023-05-09T09:20:42.980Z,2863.12
2023-05-09T09:21:42.938Z,2835.00
2023-05-09T09:22:42.958Z,2649.38
2023-05-09T09:23:43.068Z,2576.25
2023-05-09T09:24:42.947Z,2660.62
2023-05-09T09:25:42.884Z,2683.12
2023-05-09T09:26:42.886Z,2688.75
2023-05-09T09:27:42.911Z,2846.25
2023-05-09T09:28:42.942Z,2902.50
2023-05-09T09:29:42.895Z,2801.25
2023-05-09T09:30:42.843Z,2632.50
2023-05-09T09:31:42.996Z,2621.25
2023-05-09T09:32:42.972Z,2745.00
2023-05-09T09:33:42.829Z,2733.75
2023-05-09T09:34:42.941Z,2626.88
2023-05-09T09:35:43.009Z,2570.62
2023-05-09T09:36:42.876Z,2610.00
2023-05-09T09:37:43.042Z,2553.75
2023-05-09T09:38:42.861Z,2688.75
2023-05-09T09:39:42.775Z,2660.62
2023-05-09T09:40:42.984Z,2638.12
2023-05-09T09:41:42.727Z,2593.12
2023-05-09T09:42:43.359Z,2559.38
2023-05-09T09:43:43.042Z,2536.88
2023-05-09T09:44:42.916Z,2632.50
2023-05-09T09:45:43.722Z,2503.12
2023-05-09T09:46:42.801Z,2739.38
2023-05-09T09:47:42.774Z,2700.00
2023-05-09T09:48:42.900Z,2610.00
2023-05-09T09:49:44.081Z,2542.50
2023-05-09T09:50:42.631Z,2531.25
2023-05-09T09:51:42.665Z,2356.88
2023-05-09T09:52:42.793Z,2553.75
2023-05-09T09:53:42.587Z,2576.25
2023-05-09T09:54:43.183Z,2705.62
2023-05-09T09:55:45.425Z,2711.25
2023-05-09T09:56:42.651Z,2638.12
2023-05-09T09:57:42.693Z,2576.25
2023-05-09T09:58:42.585Z,2514.38
2023-05-09T09:59:42.804Z,2542.50
2023-05-09T10:00:42.541Z,2559.38
2023-05-09T10:01:42.506Z,2553.75
2023-05-09T10:02:42.699Z,2638.12
2023-05-09T10:03:42.687Z,2570.62
2023-05-09T10:04:42.500Z,2615.62
2023-05-09T10:05:42.528Z,2475.00
2023-05-09T10:06:42.507Z,2475.00
2023-05-09T10:07:42.778Z,2458.12
2023-05-09T10:08:42.422Z,2480.62
2023-05-09T10:09:42.749Z,2649.38
2023-05-09T10:10:42.642Z,2531.25
2023-05-09T10:11:42.527Z,2283.75
2023-05-09T10:12:42.454Z,2390.62
2023-05-09T10:13:42.413Z,2385.00
2023-05-09T10:14:42.410Z,1406.25
2023-05-09T10:15:53.228Z,1468.12
2023-05-09T10:16:44.855Z,1130.62
2023-05-09T10:17:43.450Z,2362.50
2023-05-09T10:18:42.655Z,2373.75
2023-05-09T10:19:42.300Z,2328.75
2023-05-09T10:20:42.330Z,1203.75
2023-05-09T10:21:42.289Z,1119.38
2023-05-09T10:22:42.343Z,1192.50
2023-05-09T10:23:42.298Z,1147.50
2023-05-09T10:24:42.237Z,2098.12
2023-05-09T10:25:42.238Z,1237.50
2023-05-09T10:27:14.683Z,1265.62
2023-05-09T10:27:42.403Z,1226.25
2023-05-09T10:28:42.271Z,1552.50
2023-05-09T10:29:42.246Z,1153.12
2023-05-09T10:30:42.212Z,1693.12
2023-05-09T10:31:42.245Z,1265.62
2023-05-09T10:32:42.321Z,2379.38
2023-05-09T10:33:42.166Z,2396.25
2023-05-09T10:34:42.204Z,1423.12
2023-05-09T10:35:42.169Z,1316.25
2023-05-09T10:36:42.142Z,2143.12
2023-05-09T10:37:42.121Z,2300.62
2023-05-09T10:38:42.115Z,1833.75
2023-05-09T10:39:42.143Z,2013.75
2023-05-09T10:40:42.076Z,2137.50
2023-05-09T10:41:42.073Z,1816.88
2023-05-09T10:42:42.142Z,787.50
2023-05-09T10:43:42.049Z,703.12
2023-05-09T10:44:42.208Z,686.25
2023-05-09T10:45:42.012Z,703.12
2023-05-09T10:46:42.086Z,736.88
2023-05-09T10:47:42.084Z,742.50
2023-05-09T10:48:41.997Z,731.25
2023-05-09T10:49:42.005Z,787.50
2023-05-09T10:50:42.034Z,1338.75
2023-05-09T10:51:42.006Z,781.88
2023-05-09T10:52:41.933Z,753.75
2023-05-09T10:53:41.922Z,765.00
2023-05-09T10:54:42.024Z,742.50
2023-05-09T10:55:41.988Z,759.38
2023-05-09T10:56:41.935Z,815.62
2023-05-09T10:57:41.944Z,945.00
2023-05-09T10:58:41.940Z,928.12
2023-05-09T10:59:41.850Z,1029.38
2023-05-09T11:00:41.900Z,1350.00
2023-05-09T11:01:42.358Z,1794.38
2023-05-09T11:02:41.889Z,1102.50
2023-05-09T11:03:41.912Z,967.50
2023-05-09T11:04:41.948Z,1738.12
2023-05-09T11:05:41.809Z,916.88
2023-05-09T11:06:41.817Z,826.88
2023-05-09T11:07:41.805Z,770.62
2023-05-09T11:08:41.749Z,742.50
2023-05-09T11:09:41.784Z,753.75
2023-05-09T11:10:41.842Z,770.62
2023-05-09T11:11:41.725Z,776.25
2023-05-09T11:12:41.742Z,798.75
2023-05-09T11:13:41.757Z,826.88
2023-05-09T11:14:41.833Z,804.38
2023-05-09T11:15:41.741Z,736.88
2023-05-09T11:16:41.734Z,675.00
2023-05-09T11:17:41.822Z,652.50
2023-05-09T11:18:41.770Z,641.25
2023-05-09T11:19:41.684Z,641.25
2023-05-09T11:20:41.675Z,652.50
2023-05-09T11:21:41.701Z,669.38
2023-05-09T11:22:41.668Z,697.50
2023-05-09T11:23:41.650Z,725.62
2023-05-09T11:24:41.645Z,725.62
2023-05-09T11:25:41.598Z,720.00
2023-05-09T11:26:41.655Z,708.75
2023-05-09T11:27:41.652Z,691.88
2023-05-09T11:28:41.647Z,680.62
2023-05-09T11:29:41.591Z,680.62
2023-05-09T11:30:41.638Z,697.50
2023-05-09T11:31:41.574Z,720.00
2023-05-09T11:32:41.591Z,753.75
2023-05-09T11:33:41.828Z,905.62
2023-05-09T11:34:41.503Z,905.62
2023-05-09T11:35:41.546Z,1147.50
2023-05-09T11:36:41.520Z,1586.25
2023-05-09T11:37:41.472Z,1676.25
2023-05-09T11:38:41.570Z,1091.25
2023-05-09T11:39:41.460Z,1158.75
2023-05-09T11:40:41.423Z,1040.62
2023-05-09T11:41:41.426Z,939.38
2023-05-09T11:42:41.468Z,973.12
2023-05-09T11:43:41.439Z,990.00
2023-05-09T11:44:41.462Z,871.88
2023-05-09T11:45:41.486Z,804.38
2023-05-09T11:46:41.483Z,776.25
2023-05-09T11:47:41.420Z,810.00
2023-05-09T11:48:41.355Z,860.62
2023-05-09T11:49:41.489Z,1012.50
2023-05-09T11:50:41.349Z,1282.50
2023-05-09T11:51:41.350Z,1068.75
2023-05-09T11:52:41.328Z,1035.00
2023-05-09T11:53:41.309Z,1164.38
2023-05-09T11:54:41.331Z,1175.62
2023-05-09T11:55:41.297Z,1181.25
2023-05-09T11:56:41.343Z,1237.50
2023-05-09T11:57:41.247Z,1575.00
2023-05-09T11:58:41.206Z,1518.75
2023-05-09T11:59:41.301Z,1181.25
2023-05-09T12:00:41.772Z,1170.00
2023-05-09T12:01:41.293Z,1209.38
2023-05-09T12:02:41.391Z,1006.88
2023-05-09T12:03:41.342Z,973.12
2023-05-09T12:04:41.279Z,1029.38
2023-05-09T12:05:41.177Z,1440.00
2023-05-09T12:06:41.206Z,1580.62
2023-05-09T12:07:41.238Z,1153.12
2023-05-09T12:08:41.165Z,1125.00
2023-05-09T12:09:41.189Z,1260.00
2023-05-09T12:10:41.206Z,1378.12
2023-05-09T12:11:41.118Z,1293.75
2023-05-09T12:12:41.146Z,1316.25
2023-05-09T12:13:41.053Z,1434.38
2023-05-09T12:14:41.145Z,1372.50
2023-05-09T12:15:43.789Z,1209.38
2023-05-09T12:16:41.117Z,1175.62
2023-05-09T12:17:41.091Z,1141.88
2023-05-09T12:18:41.243Z,1108.12
2023-05-09T12:19:41.086Z,1102.50
2023-05-09T12:20:41.064Z,1141.88
2023-05-09T12:21:41.084Z,1085.62
2023-05-09T12:22:41.017Z,1203.75
2023-05-09T12:23:41.056Z,1215.00
2023-05-09T12:24:41.772Z,1209.38
2023-05-09T12:25:41.000Z,1192.50
2023-05-09T12:26:41.069Z,990.00
2023-05-09T12:27:41.033Z,939.38
2023-05-09T12:28:40.934Z,922.50
2023-05-09T12:29:41.942Z,866.25
2023-05-09T12:30:40.934Z,967.50
2023-05-09T12:31:40.930Z,838.12
2023-05-09T12:32:41.750Z,866.25
2023-05-09T12:33:40.910Z,916.88